Time;durP1;ratioP1;P1;durP2;ratioP2;P2;SDS_P1;SDS_P2;PMS_P1;PMS_P2;Temp;Humidity;BMP_temperature;BMP_pressure;BME280_temperature;BME280_humidity;BME280_pressure;Samples;Min_cycle;Max_cycle;Signal;HPM_P1;HPM_P2
2020/12/14 00:01:06;;;;;;;7.40;3.90;;;8.50;99.90;;;;;;5008746;28;38347;-77
2020/12/14 00:03:33;;;;;;;10.03;4.40;;;8.60;99.90;;;;;;5003175;28;39310;-77
2020/12/14 00:05:59;;;;;;;6.43;3.83;;;8.60;99.90;;;;;;5007323;28;37191;-77
2020/12/14 00:08:25;;;;;;;8.37;3.83;;;8.50;99.90;;;;;;5023376;28;36009;-78
2020/12/14 00:10:52;;;;;;;7.73;3.83;;;8.50;99.90;;;;;;5005156;28;39919;-77
2020/12/14 00:13:18;;;;;;;8.30;4.10;;;8.50;99.90;;;;;;5017169;28;37209;-77
2020/12/14 00:15:45;;;;;;;11.77;3.90;;;8.50;99.90;;;;;;5013152;28;37789;-77
2020/12/14 00:18:11;;;;;;;5.13;3.80;;;8.50;99.90;;;;;;5026376;28;38818;-78
2020/12/14 00:20:37;;;;;;;9.27;4.00;;;8.50;99.90;;;;;;5021841;28;39793;-77
2020/12/14 00:23:03;;;;;;;7.87;4.13;;;8.60;99.90;;;;;;5017980;28;37184;-77
2020/12/14 00:25:29;;;;;;;7.40;3.70;;;8.50;99.90;;;;;;5029646;28;37241;-77
2020/12/14 00:27:56;;;;;;;6.20;3.53;;;8.50;99.90;;;;;;5023472;28;37155;-77
2020/12/14 00:30:22;;;;;;;6.93;3.77;;;8.60;99.90;;;;;;5026076;28;40432;-77
2020/12/14 00:32:48;;;;;;;8.07;4.10;;;8.60;99.90;;;;;;5040154;28;38489;-77
2020/12/14 00:35:14;;;;;;;7.17;3.80;;;8.60;99.90;;;;;;5022812;28;38674;-78
2020/12/14 00:37:40;;;;;;;9.83;3.97;;;8.60;99.90;;;;;;5026562;28;38090;-77
2020/12/14 00:40:06;;;;;;;4.53;3.57;;;8.60;99.90;;;;;;5045308;28;38497;-77
2020/12/14 00:42:32;;;;;;;5.70;3.70;;;8.60;99.90;;;;;;5045284;28;37737;-78
2020/12/14 00:44:58;;;;;;;5.53;3.77;;;8.70;99.90;;;;;;5023827;28;36808;-78
2020/12/14 00:47:24;;;;;;;6.13;3.87;;;8.60;99.90;;;;;;5024271;28;37237;-78
2020/12/14 00:49:50;;;;;;;7.10;4.13;;;8.60;99.90;;;;;;5023001;28;40213;-78
2020/12/14 00:52:16;;;;;;;7.20;4.60;;;8.60;99.90;;;;;;5018923;28;39153;-78
2020/12/14 00:54:42;;;;;;;9.03;4.20;;;8.60;99.90;;;;;;5024404;28;38069;-77
2020/12/14 00:57:09;;;;;;;7.17;4.40;;;8.60;99.90;;;;;;5026054;28;37678;-79
2020/12/14 00:59:35;;;;;;;9.60;5.10;;;8.60;99.90;;;;;;5037923;28;40711;-78
2020/12/14 01:02:01;;;;;;;8.47;4.90;;;8.60;99.90;;;;;;5025278;28;37542;-78
2020/12/14 01:04:27;;;;;;;9.40;4.80;;;8.60;99.90;;;;;;5022291;28;48660;-78
2020/12/14 01:06:55;;;;;;;11.17;5.37;;;8.60;99.90;;;;;;5024670;28;36206;-77
2020/12/14 01:09:21;;;;;;;6.73;4.60;;;8.70;99.90;;;;;;5032660;28;38452;-78
2020/12/14 01:11:47;;;;;;;8.67;5.30;;;8.70;99.90;;;;;;5021664;28;38738;-78
2020/12/14 01:14:13;;;;;;;7.10;4.80;;;8.70;99.90;;;;;;5018772;28;39489;-78
2020/12/14 01:16:39;;;;;;;12.17;5.33;;;8.70;99.90;;;;;;5022568;28;37200;-78
2020/12/14 01:19:05;;;;;;;7.80;4.63;;;8.70;99.90;;;;;;5019003;28;38748;-77
2020/12/14 01:21:31;;;;;;;10.27;4.77;;;8.70;99.90;;;;;;5026168;28;37442;-78
2020/12/14 01:23:58;;;;;;;5.37;4.50;;;8.70;99.90;;;;;;5032917;28;36914;-77
2020/12/14 01:26:24;;;;;;;7.57;4.97;;;8.70;99.90;;;;;;5022592;28;37048;-78
2020/12/14 01:28:50;;;;;;;7.33;5.23;;;8.70;99.90;;;;;;5019699;28;37845;-77
2020/12/14 01:31:16;;;;;;;8.70;5.10;;;8.70;99.90;;;;;;5000521;28;38261;-77
2020/12/14 01:33:42;;;;;;;7.83;5.53;;;8.70;99.90;;;;;;4998056;28;40589;-78
2020/12/14 01:36:08;;;;;;;8.83;5.30;;;8.60;99.90;;;;;;5002132;28;37952;-78
2020/12/14 01:38:34;;;;;;;9.47;5.63;;;8.60;99.90;;;;;;4997955;28;40698;-78
2020/12/14 01:41:00;;;;;;;13.97;5.90;;;8.70;99.90;;;;;;5005069;28;37384;-77
2020/12/14 01:43:26;;;;;;;10.23;5.73;;;8.70;99.90;;;;;;5019892;28;46284;-78
2020/12/14 01:45:53;;;;;;;9.70;6.47;;;8.70;99.90;;;;;;5018561;28;37213;-76
2020/12/14 01:48:23;;;;;;;9.30;6.33;;;8.70;99.90;;;;;;5019118;28;39051;-78
2020/12/14 01:50:50;;;;;;;8.73;6.63;;;8.60;99.90;;;;;;5020068;28;37622;-76
2020/12/14 01:53:18;;;;;;;9.80;6.50;;;8.60;99.90;;;;;;5018608;28;38051;-78
2020/12/14 01:55:47;;;;;;;9.17;7.20;;;8.60;99.90;;;;;;5050674;28;36541;-78
2020/12/14 01:58:13;;;;;;;14.77;7.63;;;8.60;99.90;;;;;;5035325;28;37833;-77
2020/12/14 02:00:40;;;;;;;10.07;7.97;;;8.60;99.90;;;;;;5025207;28;39351;-77
2020/12/14 02:03:06;;;;;;;10.10;7.90;;;8.60;99.90;;;;;;5035552;28;37176;-78
2020/12/14 02:05:32;;;;;;;12.07;8.77;;;8.60;99.90;;;;;;5027370;28;36675;-77
2020/12/14 02:07:58;;;;;;;10.33;7.13;;;8.60;99.90;;;;;;5019100;28;39223;-78
2020/12/14 02:10:24;;;;;;;11.03;8.47;;;8.50;99.90;;;;;;5022779;28;39111;-77
2020/12/14 02:12:51;;;;;;;14.83;8.63;;;8.60;99.90;;;;;;5021903;28;37772;-77
2020/12/14 02:15:17;;;;;;;11.63;8.40;;;8.50;99.90;;;;;;5025485;28;37412;-77
2020/12/14 02:17:43;;;;;;;13.30;9.23;;;8.50;99.90;;;;;;5015219;28;38331;-76
2020/12/14 02:20:13;;;;;;;10.63;8.10;;;8.50;99.90;;;;;;5018752;28;37351;-77
2020/12/14 02:22:39;;;;;;;12.57;9.23;;;8.50;99.90;;;;;;5030940;28;38354;-77
2020/12/14 02:25:07;;;;;;;14.23;9.13;;;8.50;99.90;;;;;;5022552;28;36865;-76
2020/12/14 02:27:35;;;;;;;12.20;9.13;;;8.50;99.90;;;;;;5023393;28;38783;-78
2020/12/14 02:30:05;;;;;;;14.07;9.43;;;8.50;99.90;;;;;;5021725;28;38475;-76
2020/12/14 02:32:31;;;;;;;14.50;9.47;;;8.50;99.90;;;;;;5053015;28;36987;-77
2020/12/14 02:34:57;;;;;;;10.10;8.63;;;8.50;99.90;;;;;;5025974;28;36395;-77
2020/12/14 02:37:29;;;;;;;12.37;9.73;;;8.60;99.90;;;;;;5040263;28;37941;-77
2020/12/14 02:39:55;;;;;;;12.03;9.83;;;8.50;99.90;;;;;;5040912;28;38521;-77
2020/12/14 02:42:23;;;;;;;16.60;10.63;;;8.60;99.90;;;;;;5021876;28;38513;-77
2020/12/14 02:44:50;;;;;;;10.20;9.13;;;8.60;99.90;;;;;;5019921;28;38379;-77
2020/12/14 02:47:17;;;;;;;19.10;11.93;;;8.50;99.90;;;;;;5010001;28;38660;-78
2020/12/14 02:49:44;;;;;;;20.03;10.37;;;8.60;99.90;;;;;;5015385;28;39690;-77
2020/12/14 02:52:11;;;;;;;11.97;10.30;;;8.50;99.90;;;;;;5034114;28;37909;-77
2020/12/14 02:54:38;;;;;;;12.87;10.43;;;8.60;99.90;;;;;;5022553;28;36378;-77
2020/12/14 02:57:04;;;;;;;13.83;11.20;;;8.60;99.90;;;;;;5023427;28;38542;-79
2020/12/14 02:59:30;;;;;;;13.60;11.17;;;8.60;99.90;;;;;;5019546;28;39003;-79
2020/12/14 03:01:56;;;;;;;15.33;12.47;;;8.60;99.90;;;;;;5019336;28;37192;-77
2020/12/14 03:04:23;;;;;;;13.80;11.77;;;8.70;99.90;;;;;;5029399;28;36843;-77
2020/12/14 03:06:49;;;;;;;15.43;13.73;;;8.70;99.90;;;;;;5004735;28;38610;-78
2020/12/14 03:09:18;;;;;;;17.17;15.40;;;8.70;99.90;;;;;;5053195;28;39900;-77
2020/12/14 03:11:44;;;;;;;20.20;14.37;;;8.80;99.90;;;;;;5031681;28;38469;-77
2020/12/14 03:14:11;;;;;;;18.67;16.60;;;8.80;99.90;;;;;;5022538;28;38497;-77
2020/12/14 03:16:50;;;;;;;19.17;16.93;;;8.90;99.90;;;;;;5042237;28;41608;-77
2020/12/14 03:19:17;;;;;;;20.87;16.50;;;8.90;99.90;;;;;;5026549;28;38568;-77
2020/12/14 03:21:43;;;;;;;18.67;16.67;;;9.00;99.90;;;;;;5019628;28;39587;-77
2020/12/14 03:24:10;;;;;;;18.73;16.73;;;9.00;99.90;;;;;;5013275;28;38085;-78
2020/12/14 03:26:37;;;;;;;20.57;17.77;;;9.10;99.90;;;;;;5058430;28;39175;-78
2020/12/14 03:29:04;;;;;;;19.80;16.50;;;9.10;99.90;;;;;;5024036;28;39851;-78
2020/12/14 03:31:31;;;;;;;20.90;15.70;;;9.10;99.90;;;;;;5019621;28;48533;-77
2020/12/14 03:33:58;;;;;;;20.03;16.33;;;9.20;99.90;;;;;;5026860;28;38402;-77
2020/12/14 03:36:24;;;;;;;18.30;15.10;;;9.10;99.90;;;;;;5027852;28;38530;-78
2020/12/14 03:38:52;;;;;;;20.13;15.97;;;9.20;99.90;;;;;;5023283;28;38435;-78
2020/12/14 03:41:20;;;;;;;20.63;15.30;;;9.20;99.90;;;;;;5027939;28;38065;-78
2020/12/14 03:43:46;;;;;;;15.30;13.80;;;9.20;99.90;;;;;;5031595;28;36704;-78
2020/12/14 03:46:27;;;;;;;17.47;14.73;;;9.30;99.90;;;;;;5029872;28;38906;-78
2020/12/14 03:48:54;;;;;;;19.80;14.13;;;9.30;99.90;;;;;;5018495;28;38387;-78
2020/12/14 03:51:21;;;;;;;15.70;13.27;;;9.30;99.90;;;;;;5023353;28;39243;-77
2020/12/14 03:53:48;;;;;;;21.27;13.87;;;9.30;99.90;;;;;;5025673;28;37340;-77
2020/12/14 03:56:19;;;;;;;14.43;13.07;;;9.40;99.90;;;;;;5024900;28;40017;-77
2020/12/14 03:58:45;;;;;;;14.20;12.60;;;9.30;99.90;;;;;;5024436;28;37636;-76
2020/12/14 04:01:12;;;;;;;13.60;12.17;;;9.40;99.90;;;;;;5033797;28;37281;-77
2020/12/14 04:03:40;;;;;;;14.50;12.40;;;9.40;99.90;;;;;;5025077;28;37033;-77
2020/12/14 04:06:06;;;;;;;15.83;13.03;;;9.40;99.90;;;;;;5024892;28;40486;-78
2020/12/14 04:08:32;;;;;;;17.80;14.27;;;9.40;99.90;;;;;;5026511;28;39148;-78
2020/12/14 04:10:58;;;;;;;15.40;13.93;;;9.40;99.90;;;;;;5038770;28;37346;-77
2020/12/14 04:13:24;;;;;;;15.23;13.40;;;9.40;99.90;;;;;;5017461;28;37497;-77
2020/12/14 04:15:50;;;;;;;16.43;14.73;;;9.40;99.90;;;;;;5022159;28;39578;-77
2020/12/14 04:18:16;;;;;;;15.83;14.30;;;9.40;99.90;;;;;;5047566;28;38565;-76
2020/12/14 04:20:42;;;;;;;18.97;14.43;;;9.40;99.90;;;;;;5018561;28;38018;-76
2020/12/14 04:23:08;;;;;;;15.10;13.50;;;9.50;99.90;;;;;;5030521;28;38345;-75
2020/12/14 04:25:34;;;;;;;20.30;14.63;;;9.50;99.90;;;;;;5019711;28;40044;-78
2020/12/14 04:28:00;;;;;;;21.03;14.30;;;9.40;99.90;;;;;;5024131;28;39323;-78
2020/12/14 04:30:27;;;;;;;14.33;12.57;;;9.50;99.90;;;;;;5026284;28;47705;-78
2020/12/14 04:32:53;;;;;;;19.87;15.43;;;9.50;99.90;;;;;;5025632;28;37649;-77
2020/12/14 04:35:19;;;;;;;15.30;13.70;;;9.40;99.90;;;;;;5016228;28;37178;-77
2020/12/14 04:37:46;;;;;;;16.27;14.27;;;9.50;99.90;;;;;;5000493;28;37347;-77
2020/12/14 04:40:12;;;;;;;16.27;14.17;;;9.50;99.90;;;;;;5045216;28;38230;-77
2020/12/14 04:42:38;;;;;;;16.27;14.03;;;9.50;99.90;;;;;;5010241;28;38181;-77
2020/12/14 04:45:04;;;;;;;17.27;14.13;;;9.50;99.90;;;;;;5005151;28;38134;-77
2020/12/14 04:47:31;;;;;;;17.70;14.30;;;9.60;99.90;;;;;;5002153;28;38565;-77
2020/12/14 04:49:58;;;;;;;19.57;14.87;;;9.60;99.90;;;;;;5001497;28;38501;-76
2020/12/14 04:52:26;;;;;;;18.90;15.07;;;9.70;99.90;;;;;;4995785;28;36415;-77
2020/12/14 04:54:53;;;;;;;16.80;15.10;;;9.70;99.90;;;;;;5001854;28;37428;-77
2020/12/14 04:57:22;;;;;;;19.13;16.33;;;9.70;99.90;;;;;;5003490;28;39021;-77
2020/12/14 04:59:52;;;;;;;18.37;16.37;;;9.70;99.90;;;;;;5003820;28;37589;-78
2020/12/14 05:02:18;;;;;;;17.53;15.60;;;9.70;99.90;;;;;;5003167;28;38045;-77
2020/12/14 05:04:44;;;;;;;19.57;15.93;;;9.70;99.90;;;;;;5007603;28;39006;-77
2020/12/14 05:07:12;;;;;;;20.97;15.07;;;9.80;99.90;;;;;;5000272;28;38570;-78
2020/12/14 05:09:40;;;;;;;17.50;15.17;;;9.80;99.90;;;;;;5005973;28;38424;-77
2020/12/14 05:12:17;;;;;;;18.60;16.10;;;9.80;99.90;;;;;;5008386;28;36469;-77
2020/12/14 05:14:43;;;;;;;15.80;14.10;;;9.80;99.90;;;;;;5008216;28;38942;-77
2020/12/14 05:17:23;;;;;;;16.00;13.63;;;9.80;99.90;;;;;;5007185;28;39163;-77
2020/12/14 05:19:50;;;;;;;16.67;12.90;;;9.80;99.90;;;;;;5000006;28;37850;-77
2020/12/14 05:22:19;;;;;;;15.50;12.90;;;9.90;99.90;;;;;;5018874;28;37334;-77
2020/12/14 05:24:49;;;;;;;16.93;12.53;;;9.90;99.90;;;;;;4996607;28;38118;-77
2020/12/14 05:27:34;;;;;;;17.63;12.97;;;9.90;99.90;;;;;;5001625;28;39094;-77
2020/12/14 05:30:13;;;;;;;14.33;11.97;;;9.90;99.90;;;;;;5002276;28;35672;-77
2020/12/14 05:32:39;;;;;;;18.93;13.07;;;9.90;99.90;;;;;;5016946;28;47410;-77
2020/12/14 05:35:11;;;;;;;17.23;12.20;;;9.90;99.90;;;;;;5017671;28;39535;-78
2020/12/14 05:37:38;;;;;;;14.13;11.88;;;9.90;99.90;;;;;;4999551;28;37608;-77
2020/12/14 05:40:12;;;;;;;16.97;11.83;;;9.90;99.90;;;;;;4997481;28;38405;-77
2020/12/14 05:42:42;;;;;;;15.57;11.50;;;9.90;99.90;;;;;;4999462;28;37118;-77
2020/12/14 05:45:12;;;;;;;15.93;12.03;;;9.90;99.90;;;;;;5003056;28;42293;-78
2020/12/14 05:47:42;;;;;;;18.67;12.53;;;10.00;99.90;;;;;;4999862;28;37128;-77
2020/12/14 05:50:12;;;;;;;13.93;12.47;;;9.90;99.90;;;;;;4986215;28;39281;-77
2020/12/14 05:52:48;;;;;;;16.23;13.37;;;9.90;99.90;;;;;;5011120;28;37057;-78
2020/12/14 05:55:18;;;;;;;17.67;12.30;;;9.90;99.90;;;;;;5009752;28;39540;-78
2020/12/14 05:57:49;;;;;;;16.67;13.57;;;10.00;99.90;;;;;;5022722;28;37278;-77
2020/12/14 06:00:18;;;;;;;17.43;13.60;;;10.00;99.90;;;;;;5038057;28;37186;-77
2020/12/14 06:02:45;;;;;;;17.83;14.27;;;10.00;99.90;;;;;;5002174;28;38447;-77
2020/12/14 06:05:11;;;;;;;22.43;13.50;;;10.00;99.90;;;;;;5023520;28;38737;-78
2020/12/14 06:07:38;;;;;;;17.70;14.60;;;10.00;99.90;;;;;;5036234;28;38631;-79
2020/12/14 06:10:15;;;;;;;16.13;13.47;;;10.10;99.90;;;;;;5015932;28;37022;-77
2020/12/14 06:12:45;;;;;;;16.83;14.37;;;10.10;99.90;;;;;;5003510;28;37244;-77
2020/12/14 06:15:16;;;;;;;17.50;13.43;;;10.10;99.90;;;;;;5016246;28;36565;-78
2020/12/14 06:17:42;;;;;;;17.70;13.87;;;10.10;99.90;;;;;;5028704;28;38614;-77
2020/12/14 06:20:20;;;;;;;19.93;13.60;;;10.20;99.90;;;;;;5025208;28;37847;-77
2020/12/14 06:23:06;;;;;;;16.83;12.73;;;10.10;99.90;;;;;;5056749;28;38039;-78
2020/12/14 06:25:33;;;;;;;14.70;12.53;;;10.20;99.90;;;;;;5061261;28;46819;-78
2020/12/14 06:28:26;;;;;;;21.03;12.03;;;10.20;99.90;;;;;;5038016;28;37281;-77
2020/12/14 06:30:53;;;;;;;17.37;11.70;;;10.20;99.90;;;;;;5048969;28;47165;-77
2020/12/14 06:33:35;;;;;;;14.43;10.73;;;10.30;99.90;;;;;;5024183;28;37286;-77
2020/12/14 06:36:19;;;;;;;15.40;9.63;;;10.30;99.90;;;;;;5059798;28;38750;-78
2020/12/14 06:38:46;;;;;;;16.87;10.20;;;10.30;99.90;;;;;;5026364;28;37759;-78
2020/12/14 06:41:20;;;;;;;11.33;9.27;;;10.30;99.90;;;;;;5024597;28;37123;-79
2020/12/14 06:44:04;;;;;;;11.50;8.17;;;10.30;99.90;;;;;;5027082;28;37567;-79
2020/12/14 06:46:32;;;;;;;10.83;7.20;;;10.30;99.90;;;;;;5038114;28;47482;-77
2020/12/14 06:48:59;;;;;;;13.57;7.80;;;10.30;99.90;;;;;;5040500;28;38277;-76
2020/12/14 06:51:46;;;;;;;8.93;6.03;;;10.40;99.90;;;;;;5017524;28;38651;-79
2020/12/14 06:54:12;;;;;;;11.90;6.17;;;10.40;99.90;;;;;;5018410;28;37469;-77
2020/12/14 06:56:41;;;;;;;8.97;5.30;;;10.50;99.90;;;;;;5026408;28;38467;-78
2020/12/14 06:59:30;;;;;;;9.80;5.03;;;10.50;99.90;;;;;;5025378;28;39132;-76
2020/12/14 07:01:58;;;;;;;7.10;5.10;;;10.60;99.90;;;;;;5018265;28;38088;-75
2020/12/14 07:04:32;;;;;;;10.30;5.17;;;10.60;99.90;;;;;;5022735;28;37922;-76
2020/12/14 07:07:07;;;;;;;8.27;4.80;;;10.60;99.90;;;;;;5015043;28;38774;-76
2020/12/14 07:09:39;;;;;;;6.50;4.30;;;10.60;99.90;;;;;;5032770;28;47109;-76
2020/12/14 07:12:11;;;;;;;7.43;3.90;;;10.70;99.90;;;;;;5036269;28;36735;-76
2020/12/14 07:14:57;;;;;;;8.55;4.20;;;10.70;99.90;;;;;;5008942;28;38213;-76
2020/12/14 07:17:25;;;;;;;4.47;3.63;;;10.70;99.90;;;;;;5004401;28;39808;-76
2020/12/14 07:19:53;;;;;;;8.60;4.47;;;10.80;99.90;;;;;;5008804;28;37164;-76
2020/12/14 07:22:21;;;;;;;7.23;3.67;;;10.70;99.90;;;;;;5007162;28;37079;-76
2020/12/14 07:25:00;;;;;;;4.37;3.40;;;10.70;99.90;;;;;;5000160;28;37015;-79
2020/12/14 07:27:27;;;;;;;6.47;3.13;;;10.70;99.90;;;;;;5003806;28;37720;-76
2020/12/14 07:30:13;;;;;;;6.37;3.43;;;10.70;99.90;;;;;;5019576;28;37455;-76
2020/12/14 07:32:40;;;;;;;6.40;3.40;;;10.70;99.90;;;;;;5001634;28;46852;-76
2020/12/14 07:35:08;;;;;;;5.63;3.10;;;10.70;99.90;;;;;;5003549;28;38507;-79
2020/12/14 07:37:35;;;;;;;7.50;3.70;;;10.70;99.90;;;;;;5018004;28;37712;-79
2020/12/14 07:40:05;;;;;;;5.30;3.20;;;10.80;99.90;;;;;;5005330;28;38598;-78
2020/12/14 07:42:34;;;;;;;4.97;3.87;;;10.70;99.90;;;;;;5005382;28;49006;-78
2020/12/14 07:45:20;;;;;;;8.63;3.90;;;10.70;99.90;;;;;;5004617;28;36960;-78
2020/12/14 07:47:51;;;;;;;6.40;4.00;;;10.60;99.90;;;;;;5014265;28;46742;-78
2020/12/14 07:50:24;;;;;;;7.33;3.93;;;10.60;99.90;;;;;;4993400;28;39464;-77
2020/12/14 07:52:53;;;;;;;7.00;3.67;;;10.60;99.90;;;;;;5004914;28;37821;-77
2020/12/14 07:55:20;;;;;;;4.67;3.57;;;10.50;99.90;;;;;;5017922;28;36110;-77
2020/12/14 07:57:48;;;;;;;7.67;3.83;;;10.60;99.90;;;;;;5009719;28;38878;-76
2020/12/14 08:00:22;;;;;;;5.03;3.40;;;10.50;99.90;;;;;;5013267;28;38492;-78
2020/12/14 08:02:49;;;;;;;6.67;3.30;;;10.60;99.90;;;;;;5005975;28;39455;-78
2020/12/14 08:05:19;;;;;;;3.83;3.17;;;10.60;99.90;;;;;;5007677;28;36925;-74
2020/12/14 08:08:01;;;;;;;4.73;3.47;;;10.50;99.90;;;;;;5029027;28;37525;-78
2020/12/14 08:10:35;;;;;;;3.45;3.13;;;10.60;99.90;;;;;;5009030;28;47225;-79
2020/12/14 08:13:11;;;;;;;5.90;3.03;;;10.60;99.90;;;;;;5024536;28;37969;-79
2020/12/14 08:15:38;;;;;;;4.70;3.30;;;10.60;99.90;;;;;;5010947;28;48832;-79
2020/12/14 08:18:05;;;;;;;4.97;3.20;;;10.70;99.90;;;;;;5010840;28;40555;-79
2020/12/14 08:20:36;;;;;;;4.83;3.50;;;10.70;99.90;;;;;;5004875;28;38489;-81
2020/12/14 08:23:15;;;;;;;4.77;3.17;;;10.60;99.90;;;;;;5020357;28;37251;-79
2020/12/14 08:25:45;;;;;;;3.97;3.10;;;10.60;99.90;;;;;;5032624;28;37560;-81
2020/12/14 08:28:11;;;;;;;5.20;3.37;;;10.70;99.90;;;;;;5019296;28;37972;-79
2020/12/14 08:30:40;;;;;;;8.63;3.83;;;10.70;99.90;;;;;;5021790;28;38034;-77
2020/12/14 08:33:11;;;;;;;6.27;3.33;;;10.70;99.90;;;;;;5027968;28;38210;-79
2020/12/14 08:35:42;;;;;;;5.07;3.17;;;10.70;99.90;;;;;;5045222;28;35958;-80
2020/12/14 08:38:20;;;;;;;4.07;3.07;;;10.70;99.90;;;;;;5023829;28;38599;-79
2020/12/14 08:41:02;;;;;;;5.57;2.60;;;10.70;99.90;;;;;;5025830;28;38029;-79
2020/12/14 08:43:30;;;;;;;7.17;3.60;;;10.70;99.90;;;;;;5028779;28;47430;-77
2020/12/14 08:46:17;;;;;;;4.60;2.60;;;10.80;99.90;;;;;;5030878;28;35533;-78
2020/12/14 08:48:51;;;;;;;6.03;2.83;;;10.80;99.90;;;;;;5029561;28;49023;-78
2020/12/14 08:51:22;;;;;;;9.53;2.63;;;10.90;99.90;;;;;;5021849;28;38332;-79
2020/12/14 08:53:50;;;;;;;7.50;3.10;;;10.80;99.90;;;;;;5066733;28;37743;-78
2020/12/14 08:56:22;;;;;;;3.20;2.90;;;10.80;99.90;;;;;;5029198;28;38042;-78
2020/12/14 08:58:58;;;;;;;5.87;3.07;;;10.80;99.90;;;;;;5026224;28;38755;-78
2020/12/14 09:01:34;;;;;;;9.83;3.23;;;10.80;99.90;;;;;;5030277;28;37160;-78
2020/12/14 09:04:03;;;;;;;5.13;2.90;;;10.80;99.90;;;;;;5031212;28;37882;-78
2020/12/14 09:06:39;;;;;;;8.13;3.17;;;10.80;99.90;;;;;;5028136;28;48622;-77
2020/12/14 09:09:15;;;;;;;4.33;3.07;;;10.80;99.90;;;;;;5029599;28;38390;-78
2020/12/14 09:11:41;;;;;;;4.00;3.23;;;10.80;99.90;;;;;;5026183;28;38895;-76
2020/12/14 09:14:08;;;;;;;7.87;3.37;;;10.90;99.90;;;;;;5028999;28;37922;-78
2020/12/14 09:16:35;;;;;;;7.40;2.90;;;10.90;99.90;;;;;;5040657;28;36150;-78
2020/12/14 09:19:02;;;;;;;6.20;3.13;;;10.90;99.90;;;;;;5040844;28;38678;-77
2020/12/14 09:21:31;;;;;;;4.93;2.70;;;10.90;99.90;;;;;;5013036;28;48655;-79
2020/12/14 09:24:11;;;;;;;6.20;2.90;;;10.90;99.90;;;;;;5012195;28;38167;-78
2020/12/14 09:26:38;;;;;;;5.03;3.13;;;11.00;99.90;;;;;;5022367;28;48703;-78
2020/12/14 09:29:04;;;;;;;6.00;3.13;;;11.00;99.90;;;;;;5022170;28;39000;-78
2020/12/14 09:31:30;;;;;;;2.80;2.20;;;11.00;99.90;;;;;;5023560;28;38150;-78
2020/12/14 09:33:56;;;;;;;4.67;2.80;;;10.90;99.90;;;;;;5025847;28;37296;-78
2020/12/14 09:36:23;;;;;;;6.17;2.90;;;10.90;99.90;;;;;;5023917;28;36896;-78
2020/12/14 09:38:49;;;;;;;3.00;2.30;;;10.90;99.90;;;;;;5011640;28;37658;-78
2020/12/14 09:41:15;;;;;;;8.03;3.10;;;10.90;99.90;;;;;;5031451;28;37854;-78
2020/12/14 09:43:43;;;;;;;3.03;2.50;;;11.00;99.90;;;;;;5035043;28;38054;-78
2020/12/14 09:46:10;;;;;;;7.57;2.67;;;11.00;99.90;;;;;;5017944;28;37676;-78
2020/12/14 09:48:37;;;;;;;3.80;2.40;;;11.00;99.90;;;;;;5054304;28;42222;-78
2020/12/14 09:51:04;;;;;;;8.73;3.67;;;11.10;99.90;;;;;;5036489;28;38421;-77
2020/12/14 09:53:30;;;;;;;4.93;2.63;;;11.10;99.90;;;;;;5040528;28;36785;-79
2020/12/14 09:55:56;;;;;;;5.63;2.93;;;11.10;99.90;;;;;;5020807;28;37144;-78
2020/12/14 09:58:22;;;;;;;3.47;2.60;;;11.10;99.90;;;;;;5022247;28;38635;-79
2020/12/14 10:00:48;;;;;;;5.80;2.80;;;11.10;99.90;;;;;;5024529;28;39539;-79
2020/12/14 10:03:14;;;;;;;8.60;2.60;;;11.10;99.90;;;;;;5022889;28;37395;-79
2020/12/14 10:05:47;;;;;;;4.60;2.50;;;11.10;99.90;;;;;;5033954;28;36399;-79
2020/12/14 10:08:14;;;;;;;;;;;11.10;99.90;;;;;;5025440;28;39071;-78
2020/12/14 10:10:40;;;;;;;4.83;2.73;;;11.10;99.90;;;;;;5040280;28;39204;-79
2020/12/14 10:13:06;;;;;;;3.17;2.57;;;11.20;99.90;;;;;;5025629;28;36969;-79
2020/12/14 10:15:33;;;;;;;3.77;2.73;;;11.30;99.90;;;;;;5024093;28;37052;-80
2020/12/14 10:17:59;;;;;;;4.50;2.43;;;11.30;99.90;;;;;;5021688;28;39505;-80
2020/12/14 10:20:26;;;;;;;4.10;2.67;;;11.30;99.90;;;;;;5031745;28;38358;-79
2020/12/14 10:22:52;;;;;;;2.37;2.17;;;11.30;99.90;;;;;;5026614;28;38480;-79
2020/12/14 10:25:18;;;;;;;3.13;2.40;;;11.30;99.90;;;;;;5026767;28;36102;-79
2020/12/14 10:27:44;;;;;;;6.90;2.83;;;11.30;99.90;;;;;;5021955;28;38720;-79
2020/12/14 10:30:10;;;;;;;4.90;2.60;;;11.30;99.90;;;;;;5026310;28;39402;-79
2020/12/14 10:32:36;;;;;;;8.33;2.93;;;11.40;99.90;;;;;;5025681;28;39043;-79
2020/12/14 10:35:02;;;;;;;5.17;3.30;;;11.40;99.90;;;;;;5023395;28;36866;-79
2020/12/14 10:37:28;;;;;;;3.87;2.80;;;11.40;99.90;;;;;;5036335;28;37925;-79
2020/12/14 10:39:54;;;;;;;5.23;3.07;;;11.40;99.90;;;;;;5042488;28;38610;-79
2020/12/14 10:42:20;;;;;;;4.83;2.73;;;11.40;99.90;;;;;;5024453;28;38392;-79
2020/12/14 10:44:47;;;;;;;5.40;2.50;;;11.30;99.90;;;;;;5025678;28;36248;-79
2020/12/14 10:47:13;;;;;;;7.20;2.53;;;11.30;99.90;;;;;;5022497;28;39052;-79
2020/12/14 10:49:39;;;;;;;3.37;2.20;;;11.40;99.90;;;;;;5033201;28;37375;-79
2020/12/14 10:52:05;;;;;;;4.67;1.80;;;11.40;99.90;;;;;;5037451;28;36934;-79
2020/12/14 10:54:31;;;;;;;3.73;1.97;;;11.50;99.90;;;;;;5035330;28;37485;-79
2020/12/14 10:56:57;;;;;;;5.40;2.00;;;11.50;99.90;;;;;;5008069;28;39181;-79
2020/12/14 10:59:23;;;;;;;2.63;1.60;;;11.50;99.90;;;;;;5022315;28;37668;-79
2020/12/14 11:01:53;;;;;;;5.43;2.00;;;11.50;99.90;;;;;;5024238;28;37844;-80
2020/12/14 11:04:19;;;;;;;4.37;2.00;;;11.60;99.90;;;;;;5025444;28;37924;-76
2020/12/14 11:06:45;;;;;;;6.25;2.25;;;11.60;99.90;;;;;;5027103;28;38969;-77
2020/12/14 11:09:11;;;;;;;2.83;2.20;;;11.60;99.90;;;;;;5025003;28;37495;-77
2020/12/14 11:11:38;;;;;;;3.47;1.90;;;11.60;99.90;;;;;;5007991;28;36654;-79
2020/12/14 11:14:04;;;;;;;3.20;2.22;;;11.70;99.90;;;;;;5020135;28;36289;-76
2020/12/14 11:16:31;;;;;;;1.73;1.60;;;11.70;99.90;;;;;;5042373;28;38927;-77
2020/12/14 11:18:58;;;;;;;2.87;1.80;;;11.80;99.90;;;;;;5029075;28;39435;-76
2020/12/14 11:21:25;;;;;;;2.43;2.10;;;11.90;99.90;;;;;;5034382;28;37075;-76
2020/12/14 11:23:51;;;;;;;4.30;2.10;;;11.90;99.90;;;;;;5043640;28;36511;-76
2020/12/14 11:26:17;;;;;;;3.97;1.98;;;11.90;99.90;;;;;;5028803;28;38596;-76
2020/12/14 11:28:43;;;;;;;4.95;2.00;;;12.00;99.90;;;;;;5027218;28;38468;-76
2020/12/14 11:31:09;;;;;;;2.97;1.90;;;12.00;99.90;;;;;;5030579;28;38322;-76
2020/12/14 11:33:35;;;;;;;5.07;2.05;;;12.00;99.90;;;;;;5027018;28;36244;-77
2020/12/14 11:36:03;;;;;;;3.92;1.90;;;12.00;99.90;;;;;;5021392;28;39850;-76
2020/12/14 11:38:30;;;;;;;3.85;1.90;;;12.10;99.90;;;;;;5033365;28;38108;-77
2020/12/14 11:40:59;;;;;;;4.47;2.00;;;12.10;99.90;;;;;;5042021;28;37211;-77
2020/12/14 11:43:26;;;;;;;3.53;2.47;;;12.00;99.90;;;;;;5029412;28;36461;-77
2020/12/14 11:45:52;;;;;;;7.80;2.35;;;12.10;99.90;;;;;;5047563;28;37186;-77
2020/12/14 11:48:18;;;;;;;6.40;2.15;;;12.10;99.90;;;;;;5027106;28;37348;-78
2020/12/14 11:50:44;;;;;;;4.95;2.67;;;12.10;99.90;;;;;;5063064;28;38624;-77
2020/12/14 11:53:11;;;;;;;4.75;2.38;;;12.00;99.90;;;;;;5021704;28;38221;-76
2020/12/14 11:55:38;;;;;;;8.45;3.03;;;12.00;99.90;;;;;;5028123;28;38028;-77
2020/12/14 11:58:04;;;;;;;7.63;2.47;;;12.00;99.90;;;;;;5044405;28;37480;-77
2020/12/14 12:00:31;;;;;;;4.28;2.50;;;12.10;99.90;;;;;;5028414;28;37822;-77
2020/12/14 12:02:57;;;;;;;6.70;2.22;;;12.10;99.90;;;;;;5025879;28;37222;-77
2020/12/14 12:05:23;;;;;;;6.10;2.15;;;12.10;99.90;;;;;;5041911;28;39345;-78
2020/12/14 12:07:49;;;;;;;4.63;1.88;;;12.10;99.90;;;;;;5044627;28;37187;-77
2020/12/14 12:10:16;;;;;;;3.97;2.22;;;12.10;99.90;;;;;;5060676;28;37615;-78
2020/12/14 12:12:42;;;;;;;4.80;1.92;;;12.10;99.90;;;;;;5046827;28;37309;-77
2020/12/14 12:15:08;;;;;;;4.55;2.10;;;12.10;99.90;;;;;;5035093;28;37791;-78
2020/12/14 12:17:34;;;;;;;4.75;2.20;;;12.10;99.90;;;;;;5030367;28;39254;-75
2020/12/14 12:20:01;;;;;;;5.82;1.90;;;12.00;99.90;;;;;;5027001;28;36799;-75
2020/12/14 12:22:27;;;;;;;5.32;2.35;;;12.10;99.90;;;;;;5060743;28;36287;-77
2020/12/14 12:24:53;;;;;;;7.80;2.47;;;12.10;99.90;;;;;;5032629;28;37703;-78
2020/12/14 12:27:19;;;;;;;6.70;2.72;;;12.10;99.90;;;;;;5063381;28;37453;-77
2020/12/14 12:29:45;;;;;;;6.38;2.00;;;12.10;99.90;;;;;;5032817;28;37935;-78
2020/12/14 12:32:11;;;;;;;7.47;2.65;;;12.10;99.90;;;;;;5046468;28;33684;-77
2020/12/14 12:34:37;;;;;;;7.68;2.55;;;12.20;99.90;;;;;;5060964;28;37814;-76
2020/12/14 12:37:03;;;;;;;5.78;2.35;;;12.20;99.90;;;;;;5047005;28;37176;-77
2020/12/14 12:39:29;;;;;;;6.97;2.65;;;12.20;99.90;;;;;;5026718;28;37946;-77
2020/12/14 12:41:57;;;;;;;7.13;2.42;;;12.20;99.90;;;;;;5024097;28;36831;-77
2020/12/14 12:44:24;;;;;;;7.00;2.80;;;12.20;99.90;;;;;;5043778;28;38714;-77
2020/12/14 12:46:50;;;;;;;6.03;2.65;;;12.20;99.90;;;;;;5025602;28;39108;-77
2020/12/14 12:49:16;;;;;;;6.57;3.25;;;12.20;99.90;;;;;;5025334;28;36981;-77
2020/12/14 12:51:47;;;;;;;6.25;2.35;;;12.10;99.90;;;;;;5023066;28;37236;-78